sensor_id;sensor_type;location;lat;lon;timestamp;pressure;altitude;pressure_sealevel;temperature;humidity
84143;BME280;74260;50.772;7.730;2024-02-15T00:00:19;99042.38;;;11.16;100.00
84143;BME280;74260;50.772;7.730;2024-02-15T00:00:52;99052.94;;;11.19;100.00
84143;BME280;74260;50.772;7.730;2024-02-15T00:01:22;99044.16;;;11.17;100.00
84143;BME280;74260;50.772;7.730;2024-02-15T00:01:52;99048.81;;;11.21;100.00
84143;BME280;74260;50.772;7.730;2024-02-15T00:02:23;99047.13;;;11.22;100.00
84143;BME280;74260;50.772;7.730;2024-02-15T00:02:55;99051.41;;;11.21;100.00
84143;BME280;74260;50.772;7.730;2024-02-15T00:03:28;99050.13;;;11.26;100.00
84143;BME280;74260;50.772;7.730;2024-02-15T00:03:58;99023.16;;;11.13;100.00
84143;BME280;74260;50.772;7.730;2024-02-15T00:04:29;99047.78;;;11.19;100.00
84143;BME280;74260;50.772;7.730;2024-02-15T00:05:00;99052.94;;;11.19;100.00
84143;BME280;74260;50.772;7.730;2024-02-15T00:05:31;99055.00;;;11.23;100.00
84143;BME280;74260;50.772;7.730;2024-02-15T00:06:01;99049.81;;;11.23;100.00
84143;BME280;74260;50.772;7.730;2024-02-15T00:06:32;99041.97;;;11.22;100.00
84143;BME280;74260;50.772;7.730;2024-02-15T00:07:03;99049.06;;;11.24;100.00
84143;BME280;74260;50.772;7.730;2024-02-15T00:07:34;99047.78;;;11.29;100.00
84143;BME280;74260;50.772;7.730;2024-02-15T00:08:06;99046.00;;;11.28;100.00
84143;BME280;74260;50.772;7.730;2024-02-15T00:08:36;99051.00;;;11.27;100.00
84143;BME280;74260;50.772;7.730;2024-02-15T00:09:08;99039.66;;;11.25;100.00
84143;BME280;74260;50.772;7.730;2024-02-15T00:09:38;99045.59;;;11.24;100.00
84143;BME280;74260;50.772;7.730;2024-02-15T00:10:09;99053.44;;;11.25;100.00
84143;BME280;74260;50.772;7.730;2024-02-15T00:10:39;99045.47;;;11.22;100.00
84143;BME280;74260;50.772;7.730;2024-02-15T00:11:10;99040.53;;;11.15;100.00
84143;BME280;74260;50.772;7.730;2024-02-15T00:11:41;99042.06;;;11.13;100.00
84143;BME280;74260;50.772;7.730;2024-02-15T00:12:11;99046.75;;;11.17;100.00
84143;BME280;74260;50.772;7.730;2024-02-15T00:12:43;99050.09;;;11.16;100.00
84143;BME280;74260;50.772;7.730;2024-02-15T00:13:13;99052.94;;;11.19;100.00
84143;BME280;74260;50.772;7.730;2024-02-15T00:13:44;99035.13;;;11.12;100.00
84143;BME280;74260;50.772;7.730;2024-02-15T00:14:14;99051.13;;;11.18;100.00
84143;BME280;74260;50.772;7.730;2024-02-15T00:14:44;99040.53;;;11.15;100.00
84143;BME280;74260;50.772;7.730;2024-02-15T00:15:16;99047.78;;;11.19;100.00
84143;BME280;74260;50.772;7.730;2024-02-15T00:15:47;99039.25;;;11.20;100.00
84143;BME280;74260;50.772;7.730;2024-02-15T00:16:18;99040.03;;;11.19;100.00
84143;BME280;74260;50.772;7.730;2024-02-15T00:16:48;99038.63;;;11.23;100.00
84143;BME280;74260;50.772;7.730;2024-02-15T00:17:20;99044.41;;;11.20;100.00
84143;BME280;74260;50.772;7.730;2024-02-15T00:17:50;99051.41;;;11.21;100.00
84143;BME280;74260;50.772;7.730;2024-02-15T00:18:21;99044.41;;;11.20;100.00
84143;BME280;74260;50.772;7.730;2024-02-15T00:18:52;99042.75;;;11.21;100.00
84143;BME280;74260;50.772;7.730;2024-02-15T00:19:22;99015.00;;;11.08;100.00
84143;BME280;74260;50.772;7.730;2024-02-15T00:19:54;99045.22;;;11.29;100.00
84143;BME280;74260;50.772;7.730;2024-02-15T00:20:25;99039.50;;;11.23;100.00
84143;BME280;74260;50.772;7.730;2024-02-15T00:20:55;99037.97;;;11.25;100.00
84143;BME280;74260;50.772;7.730;2024-02-15T00:21:25;99042.88;;;11.32;100.00
84143;BME280;74260;50.772;7.730;2024-02-15T00:21:58;99052.03;;;11.29;100.00
84143;BME280;74260;50.772;7.730;2024-02-15T00:22:28;99049.06;;;11.24;100.00
84143;BME280;74260;50.772;7.730;2024-02-15T00:23:00;99044.97;;;11.26;100.00
84143;BME280;74260;50.772;7.730;2024-02-15T00:23:31;99053.44;;;11.25;100.00
84143;BME280;74260;50.772;7.730;2024-02-15T00:24:02;99049.06;;;11.24;100.00
84143;BME280;74260;50.772;7.730;2024-02-15T00:24:33;99033.34;;;11.21;100.00
84143;BME280;74260;50.772;7.730;2024-02-15T00:25:03;99042.38;;;11.26;100.00
84143;BME280;74260;50.772;7.730;2024-02-15T00:25:36;99044.03;;;11.26;100.00
84143;BME280;74260;50.772;7.730;2024-02-15T00:26:06;99020.41;;;11.11;100.00
84143;BME280;74260;50.772;7.730;2024-02-15T00:26:38;99046.25;;;11.21;100.00
84143;BME280;74260;50.772;7.730;2024-02-15T00:27:09;99042.75;;;11.21;100.00
84143;BME280;74260;50.772;7.730;2024-02-15T00:27:41;99045.22;;;11.29;100.00
84143;BME280;74260;50.772;7.730;2024-02-15T00:28:11;99036.19;;;11.24;100.00
84143;BME280;74260;50.772;7.730;2024-02-15T00:28:43;99042.88;;;11.32;100.00
84143;BME280;74260;50.772;7.730;2024-02-15T00:29:13;99042.75;;;11.31;100.00
84143;BME280;74260;50.772;7.730;2024-02-15T00:29:44;99033.22;;;11.20;100.00
84143;BME280;74260;50.772;7.730;2024-02-15T00:30:14;99044.41;;;11.30;100.00
84143;BME280;74260;50.772;7.730;2024-02-15T00:30:46;99038.75;;;11.24;100.00
84143;BME280;74260;50.772;7.730;2024-02-15T00:31:17;99044.16;;;11.27;100.00
84143;BME280;74260;50.772;7.730;2024-02-15T00:31:48;99042.09;;;11.23;100.00
84143;BME280;74260;50.772;7.730;2024-02-15T00:32:19;99038.38;;;11.20;100.00
84143;BME280;74260;50.772;7.730;2024-02-15T00:32:49;99037.97;;;11.15;100.00
84143;BME280;74260;50.772;7.730;2024-02-15T00:33:21;99037.47;;;11.19;100.00
84143;BME280;74260;50.772;7.730;2024-02-15T00:33:52;99047.13;;;11.22;100.00
84143;BME280;74260;50.772;7.730;2024-02-15T00:34:24;99054.72;;;11.20;100.00
84143;BME280;74260;50.772;7.730;2024-02-15T00:34:56;99054.09;;;11.23;100.00
84143;BME280;74260;50.772;7.730;2024-02-15T00:35:27;99049.81;;;11.23;100.00
84143;BME280;74260;50.772;7.730;2024-02-15T00:35:58;99037.72;;;11.22;100.00
84143;BME280;74260;50.772;7.730;2024-02-15T00:36:28;99053.75;;;11.28;100.00
84143;BME280;74260;50.772;7.730;2024-02-15T00:37:01;99054.38;;;11.26;100.00
84143;BME280;74260;50.772;7.730;2024-02-15T00:37:33;99050.38;;;11.29;100.00
84143;BME280;74260;50.772;7.730;2024-02-15T00:38:03;99036.81;;;11.22;100.00
84143;BME280;74260;50.772;7.730;2024-02-15T00:38:34;99024.69;;;11.21;100.00
84143;BME280;74260;50.772;7.730;2024-02-15T00:39:05;99039.91;;;11.28;100.00
84143;BME280;74260;50.772;7.730;2024-02-15T00:39:36;99043.41;;;11.28;100.00
84143;BME280;74260;50.772;7.730;2024-02-15T00:40:06;99036.81;;;11.22;100.00
84143;BME280;74260;50.772;7.730;2024-02-15T00:40:37;99043.78;;;11.23;100.00
84143;BME280;74260;50.772;7.730;2024-02-15T00:41:07;99048.03;;;11.22;100.00
84143;BME280;74260;50.772;7.730;2024-02-15T00:41:40;99031.00;;;11.14;100.00
84143;BME280;74260;50.772;7.730;2024-02-15T00:42:11;99036.16;;;11.14;100.00
84143;BME280;74260;50.772;7.730;2024-02-15T00:42:42;99043.91;;;11.14;100.00
84143;BME280;74260;50.772;7.730;2024-02-15T00:43:13;99049.69;;;11.22;100.00
84143;BME280;74260;50.772;7.730;2024-02-15T00:43:44;99056.03;;;11.25;100.00
84143;BME280;74260;50.772;7.730;2024-02-15T00:44:14;99050.63;;;11.22;100.00
84143;BME280;74260;50.772;7.730;2024-02-15T00:44:45;99040.66;;;11.17;100.00
84143;BME280;74260;50.772;7.730;2024-02-15T00:45:15;99042.63;;;11.19;100.00
84143;BME280;74260;50.772;7.730;2024-02-15T00:45:46;99052.28;;;11.22;100.00
84143;BME280;74260;50.772;7.730;2024-02-15T00:46:16;99045.06;;;11.18;100.00
84143;BME280;74260;50.772;7.730;2024-02-15T00:46:47;99047.25;;;11.23;100.00
84143;BME280;74260;50.772;7.730;2024-02-15T00:47:18;99053.19;;;11.22;100.00
84143;BME280;74260;50.772;7.730;2024-02-15T00:47:52;99043.53;;;11.20;100.00
84143;BME280;74260;50.772;7.730;2024-02-15T00:48:29;99047.13;;;11.22;100.00
84143;BME280;74260;50.772;7.730;2024-02-15T00:49:00;99051.78;;;11.26;100.00
84143;BME280;74260;50.772;7.730;2024-02-15T00:49:31;99053.19;;;11.22;100.00
84143;BME280;74260;50.772;7.730;2024-02-15T00:50:02;99052.03;;;11.19;100.00
84143;BME280;74260;50.772;7.730;2024-02-15T00:50:34;99048.53;;;11.18;100.00
84143;BME280;74260;50.772;7.730;2024-02-15T00:51:05;99047.25;;;11.13;100.00
84143;BME280;74260;50.772;7.730;2024-02-15T00:51:36;99061.44;;;11.18;100.00
84143;BME280;74260;50.772;7.730;2024-02-15T00:52:06;99055.41;;;11.18;100.00
84143;BME280;74260;50.772;7.730;2024-02-15T00:52:37;99043.00;;;11.14;100.00
84143;BME280;74260;50.772;7.730;2024-02-15T00:53:08;99052.28;;;11.22;100.00
84143;BME280;74260;50.772;7.730;2024-02-15T00:53:39;99049.34;;;11.27;100.00
84143;BME280;74260;50.772;7.730;2024-02-15T00:54:10;99043.25;;;11.17;100.00
84143;BME280;74260;50.772;7.730;2024-02-15T00:54:40;99052.28;;;11.22;100.00
84143;BME280;74260;50.772;7.730;2024-02-15T00:55:11;99056.03;;;11.25;100.00
84143;BME280;74260;50.772;7.730;2024-02-15T00:55:42;99048.81;;;11.21;100.00
84143;BME280;74260;50.772;7.730;2024-02-15T00:56:13;99056.81;;;11.24;100.00
84143;BME280;74260;50.772;7.730;2024-02-15T00:56:44;99059.78;;;11.29;100.00
84143;BME280;74260;50.772;7.730;2024-02-15T00:57:16;99053.19;;;11.22;100.00
84143;BME280;74260;50.772;7.730;2024-02-15T00:57:48;99048.81;;;11.21;100.00
84143;BME280;74260;50.772;7.730;2024-02-15T00:58:18;99054.72;;;11.20;100.00
84143;BME280;74260;50.772;7.730;2024-02-15T00:58:49;99052.28;;;11.22;100.00
84143;BME280;74260;50.772;7.730;2024-02-15T00:59:20;99063.25;;;11.19;100.00
84143;BME280;74260;50.772;7.730;2024-02-15T00:59:50;99055.00;;;11.23;100.00
84143;BME280;74260;50.772;7.730;2024-02-15T01:00:22;99039.25;;;11.20;100.00
84143;BME280;74260;50.772;7.730;2024-02-15T01:00:53;99052.03;;;11.29;99.97
84143;BME280;74260;50.772;7.730;2024-02-15T01:01:23;99060.06;;;11.32;99.98
84143;BME280;74260;50.772;7.730;2024-02-15T01:02:13;99065.34;;;11.33;99.91
84143;BME280;74260;50.772;7.730;2024-02-15T01:02:48;99057.63;;;11.33;99.93
84143;BME280;74260;50.772;7.730;2024-02-15T01:03:19;99053.44;;;11.25;99.88
84143;BME280;74260;50.772;7.730;2024-02-15T01:03:50;99058.59;;;11.25;100.00
84143;BME280;74260;50.772;7.730;2024-02-15T01:04:20;99053.75;;;11.28;100.00
84143;BME280;74260;50.772;7.730;2024-02-15T01:04:51;99059.41;;;11.24;100.00
84143;BME280;74260;50.772;7.730;2024-02-15T01:05:26;99050.88;;;11.25;100.00
84143;BME280;74260;50.772;7.730;2024-02-15T01:05:57;99056.81;;;11.24;100.00
84143;BME280;74260;50.772;7.730;2024-02-15T01:06:29;99044.41;;;11.20;100.00
84143;BME280;74260;50.772;7.730;2024-02-15T01:06:59;99048.69;;;11.20;100.00
84143;BME280;74260;50.772;7.730;2024-02-15T01:07:31;99049.81;;;11.23;100.00
84143;BME280;74260;50.772;7.730;2024-02-15T01:08:01;99047.25;;;11.23;100.00
84143;BME280;74260;50.772;7.730;2024-02-15T01:08:31;99051.66;;;11.24;100.00
84143;BME280;74260;50.772;7.730;2024-02-15T01:09:24;99036.56;;;11.19;100.00
84143;BME280;74260;50.772;7.730;2024-02-15T01:09:55;99040.03;;;11.19;100.00
84143;BME280;74260;50.772;7.730;2024-02-15T01:10:25;99048.81;;;11.21;100.00
84143;BME280;74260;50.772;7.730;2024-02-15T01:10:56;99054.09;;;11.23;100.00
84143;BME280;74260;50.772;7.730;2024-02-15T01:11:27;99054.38;;;11.26;100.00
84143;BME280;74260;50.772;7.730;2024-02-15T01:11:58;99046.00;;;11.28;100.00
84143;BME280;74260;50.772;7.730;2024-02-15T01:12:28;99048.03;;;11.22;100.00
84143;BME280;74260;50.772;7.730;2024-02-15T01:12:59;99057.56;;;11.23;100.00
84143;BME280;74260;50.772;7.730;2024-02-15T01:13:30;99054.09;;;11.23;100.00
84143;BME280;74260;50.772;7.730;2024-02-15T01:14:01;99055.28;;;11.26;100.00
84143;BME280;74260;50.772;7.730;2024-02-15T01:14:31;99056.81;;;11.24;100.00
84143;BME280;74260;50.772;7.730;2024-02-15T01:15:02;99048.41;;;11.17;100.00
84143;BME280;74260;50.772;7.730;2024-02-15T01:15:33;99045.81;;;11.17;100.00
84143;BME280;74260;50.772;7.730;2024-02-15T01:16:05;99043.78;;;11.13;100.00
84143;BME280;74260;50.772;7.730;2024-02-15T01:16:36;99052.81;;;11.28;100.00
84143;BME280;74260;50.772;7.730;2024-02-15T01:17:07;99051.28;;;11.20;100.00
84143;BME280;74260;50.772;7.730;2024-02-15T01:17:37;99052.81;;;11.18;100.00
84143;BME280;74260;50.772;7.730;2024-02-15T01:18:08;99048.78;;;11.11;100.00
84143;BME280;74260;50.772;7.730;2024-02-15T01:18:38;99052.81;;;11.18;100.00
84143;BME280;74260;50.772;7.730;2024-02-15T01:19:08;99058.34;;;11.22;100.00
84143;BME280;74260;50.772;7.730;2024-02-15T01:19:39;99046.75;;;11.17;100.00
84143;BME280;74260;50.772;7.730;2024-02-15T01:20:12;99047.78;;;11.19;100.00
84143;BME280;74260;50.772;7.730;2024-02-15T01:20:56;99049.31;;;11.17;100.00
84143;BME280;74260;50.772;7.730;2024-02-15T01:21:28;99045.19;;;11.09;100.00
84143;BME280;74260;50.772;7.730;2024-02-15T01:21:58;99051.91;;;11.17;100.00
84143;BME280;74260;50.772;7.730;2024-02-15T01:22:30;99049.06;;;11.14;100.00
84143;BME280;74260;50.772;7.730;2024-02-15T01:23:01;99047.38;;;11.15;100.00
84143;BME280;74260;50.772;7.730;2024-02-15T01:23:33;99052.69;;;11.16;100.00
84143;BME280;74260;50.772;7.730;2024-02-15T01:24:06;99052.41;;;11.13;100.00
84143;BME280;74260;50.772;7.730;2024-02-15T01:24:37;99058.47;;;11.14;100.00
84143;BME280;74260;50.772;7.730;2024-02-15T01:25:07;99058.34;;;11.12;100.00
84143;BME280;74260;50.772;7.730;2024-02-15T01:25:38;99053.31;;;11.14;100.00
84143;BME280;74260;50.772;7.730;2024-02-15T01:26:10;99042.06;;;11.13;100.00
84143;BME280;74260;50.772;7.730;2024-02-15T01:26:42;99049.31;;;11.17;100.00
84143;BME280;74260;50.772;7.730;2024-02-15T01:27:13;99051.66;;;11.14;100.00
84143;BME280;74260;50.772;7.730;2024-02-15T01:27:43;99058.09;;;11.19;100.00
84143;BME280;74260;50.772;7.730;2024-02-15T01:28:14;99052.41;;;11.23;100.00
84143;BME280;74260;50.772;7.730;2024-02-15T01:28:44;99046.75;;;11.17;100.00
84143;BME280;74260;50.772;7.730;2024-02-15T01:29:15;99051.16;;;11.28;100.00
84143;BME280;74260;50.772;7.730;2024-02-15T01:29:45;99051.91;;;11.27;100.00
84143;BME280;74260;50.772;7.730;2024-02-15T01:30:15;99054.25;;;11.24;100.00
84143;BME280;74260;50.772;7.730;2024-02-15T01:30:46;99051.66;;;11.24;100.00
84143;BME280;74260;50.772;7.730;2024-02-15T01:31:18;99055.00;;;11.23;100.00
84143;BME280;74260;50.772;7.730;2024-02-15T01:31:48;99068.81;;;11.24;100.00
84143;BME280;74260;50.772;7.730;2024-02-15T01:32:19;99053.31;;;11.24;100.00
84143;BME280;74260;50.772;7.730;2024-02-15T01:32:51;99050.50;;;11.21;100.00
84143;BME280;74260;50.772;7.730;2024-02-15T01:33:21;99056.56;;;11.21;100.00
84143;BME280;74260;50.772;7.730;2024-02-15T01:33:52;99054.72;;;11.20;100.00
84143;BME280;74260;50.772;7.730;2024-02-15T01:34:22;99055.28;;;11.26;100.00
84143;BME280;74260;50.772;7.730;2024-02-15T01:34:54;99050.13;;;11.26;100.00
84143;BME280;74260;50.772;7.730;2024-02-15T01:35:25;99058.13;;;11.29;100.00
84143;BME280;74260;50.772;7.730;2024-02-15T01:35:55;99058.59;;;11.25;100.00
84143;BME280;74260;50.772;7.730;2024-02-15T01:36:26;99057.44;;;11.22;100.00
84143;BME280;74260;50.772;7.730;2024-02-15T01:36:59;99053.19;;;11.22;100.00
84143;BME280;74260;50.772;7.730;2024-02-15T01:37:30;99062.47;;;11.20;100.00
84143;BME280;74260;50.772;7.730;2024-02-15T01:38:00;99057.06;;;11.17;100.00
84143;BME280;74260;50.772;7.730;2024-02-15T01:38:30;99057.19;;;11.19;100.00
84143;BME280;74260;50.772;7.730;2024-02-15T01:39:01;99055.41;;;11.18;100.00
84143;BME280;74260;50.772;7.730;2024-02-15T01:39:31;99051.13;;;11.18;100.00
84143;BME280;74260;50.772;7.730;2024-02-15T01:40:02;99061.44;;;11.18;100.00
84143;BME280;74260;50.772;7.730;2024-02-15T01:40:34;99066.59;;;11.18;100.00
84143;BME280;74260;50.772;7.730;2024-02-15T01:41:05;99046.97;;;11.10;100.00
84143;BME280;74260;50.772;7.730;2024-02-15T01:41:36;99056.28;;;11.18;100.00
84143;BME280;74260;50.772;7.730;2024-02-15T01:42:07;99055.28;;;11.16;100.00
84143;BME280;74260;50.772;7.730;2024-02-15T01:42:37;99053.19;;;11.12;100.00
84143;BME280;74260;50.772;7.730;2024-02-15T01:43:07;99050.38;;;11.19;100.00
84143;BME280;74260;50.772;7.730;2024-02-15T01:43:38;99059.63;;;11.17;100.00
84143;BME280;74260;50.772;7.730;2024-02-15T01:44:08;99047.25;;;11.13;100.00
84143;BME280;74260;50.772;7.730;2024-02-15T01:44:41;99054.34;;;11.16;100.00
84143;BME280;74260;50.772;7.730;2024-02-15T01:45:14;99049.56;;;11.10;100.00
84143;BME280;74260;50.772;7.730;2024-02-15T01:45:45;99066.34;;;11.15;100.00
84143;BME280;74260;50.772;7.730;2024-02-15T01:46:17;99060.16;;;11.23;100.00
84143;BME280;74260;50.772;7.730;2024-02-15T01:46:48;99059.91;;;11.20;100.00
84143;BME280;74260;50.772;7.730;2024-02-15T01:47:19;99055.66;;;11.21;100.00
84143;BME280;74260;50.772;7.730;2024-02-15T01:47:53;99055.66;;;11.21;100.00
84143;BME280;74260;50.772;7.730;2024-02-15T01:48:24;99057.31;;;11.20;100.00
84143;BME280;74260;50.772;7.730;2024-02-15T01:48:55;99046.63;;;11.16;100.00
84143;BME280;74260;50.772;7.730;2024-02-15T01:49:27;99047.25;;;11.13;100.00
84143;BME280;74260;50.772;7.730;2024-02-15T01:49:58;99045.69;;;11.15;100.00
84143;BME280;74260;50.772;7.730;2024-02-15T01:50:28;99055.28;;;11.16;100.00
84143;BME280;74260;50.772;7.730;2024-02-15T01:50:58;99047.53;;;11.16;100.00
84143;BME280;74260;50.772;7.730;2024-02-15T01:51:29;99043.91;;;11.14;100.00
84143;BME280;74260;50.772;7.730;2024-02-15T01:52:00;99045.69;;;11.15;100.00
84143;BME280;74260;50.772;7.730;2024-02-15T01:52:32;99054.47;;;11.17;100.00
84143;BME280;74260;50.772;7.730;2024-02-15T01:53:04;99032.28;;;11.09;100.00
84143;BME280;74260;50.772;7.730;2024-02-15T01:53:38;99043.91;;;11.14;100.00
84143;BME280;74260;50.772;7.730;2024-02-15T01:54:12;99050.09;;;11.16;100.00
84143;BME280;74260;50.772;7.730;2024-02-15T01:54:45;99042.63;;;11.19;100.00
84143;BME280;74260;50.772;7.730;2024-02-15T01:55:17;99042.38;;;11.16;100.00
84143;BME280;74260;50.772;7.730;2024-02-15T01:55:49;99044.94;;;11.16;100.00
84143;BME280;74260;50.772;7.730;2024-02-15T01:56:21;99047.25;;;11.13;100.00
84143;BME280;74260;50.772;7.730;2024-02-15T01:56:53;99050.22;;;11.18;100.00
84143;BME280;74260;50.772;7.730;2024-02-15T01:57:26;99040.78;;;11.18;100.00
84143;BME280;74260;50.772;7.730;2024-02-15T01:57:58;99041.59;;;11.17;100.00
84143;BME280;74260;50.772;7.730;2024-02-15T01:58:29;99015.78;;;11.07;100.00
84143;BME280;74260;50.772;7.730;2024-02-15T01:59:02;99035.63;;;11.18;100.00
84143;BME280;74260;50.772;7.730;2024-02-15T01:59:34;99049.06;;;11.24;100.00
84143;BME280;74260;50.772;7.730;2024-02-15T02:00:07;99047.78;;;11.29;99.71
84143;BME280;74260;50.772;7.730;2024-02-15T02:00:39;99036.44;;;11.27;99.55
84143;BME280;74260;50.772;7.730;2024-02-15T02:01:10;99051.41;;;11.31;99.60
84143;BME280;74260;50.772;7.730;2024-02-15T02:01:43;99038.50;;;11.31;99.32
84143;BME280;74260;50.772;7.730;2024-02-15T02:02:14;99047.16;;;11.32;99.27
84143;BME280;74260;50.772;7.730;2024-02-15T02:02:46;99027.94;;;11.28;99.24
84143;BME280;74260;50.772;7.730;2024-02-15T02:03:17;99037.34;;;11.28;99.13
84143;BME280;74260;50.772;7.730;2024-02-15T02:03:49;99033.72;;;11.26;99.38
84143;BME280;74260;50.772;7.730;2024-02-15T02:04:20;99045.22;;;11.29;99.49
84143;BME280;74260;50.772;7.730;2024-02-15T02:04:54;99040.31;;;11.32;99.53
84143;BME280;74260;50.772;7.730;2024-02-15T02:05:27;99044.72;;;11.33;99.41
84143;BME280;74260;50.772;7.730;2024-02-15T02:06:00;99034.63;;;11.26;99.46
84143;BME280;74260;50.772;7.730;2024-02-15T02:06:31;99049.34;;;11.27;99.58
84143;BME280;74260;50.772;7.730;2024-02-15T02:07:01;99040.06;;;11.29;99.63
84143;BME280;74260;50.772;7.730;2024-02-15T02:07:31;99038.09;;;11.27;99.34
84143;BME280;74260;50.772;7.730;2024-02-15T02:08:02;99043.41;;;11.28;99.40
84143;BME280;74260;50.772;7.730;2024-02-15T02:08:34;99041.09;;;11.31;99.25
84143;BME280;74260;50.772;7.730;2024-02-15T02:09:06;99040.06;;;11.29;99.34
84143;BME280;74260;50.772;7.730;2024-02-15T02:09:40;99041.84;;;11.30;99.43
84143;BME280;74260;50.772;7.730;2024-02-15T02:10:11;99040.44;;;11.34;99.30
84143;BME280;74260;50.772;7.730;2024-02-15T02:10:42;99040.44;;;11.34;99.12
84143;BME280;74260;50.772;7.730;2024-02-15T02:11:12;99043.00;;;11.34;99.01
84143;BME280;74260;50.772;7.730;2024-02-15T02:11:45;99040.31;;;11.32;99.24
84143;BME280;74260;50.772;7.730;2024-02-15T02:12:16;99043.53;;;11.30;99.61
84143;BME280;74260;50.772;7.730;2024-02-15T02:12:47;99038.88;;;11.26;99.56
84143;BME280;74260;50.772;7.730;2024-02-15T02:13:18;99036.19;;;11.24;99.63
84143;BME280;74260;50.772;7.730;2024-02-15T02:13:49;99031.00;;;11.24;99.62
84143;BME280;74260;50.772;7.730;2024-02-15T02:14:19;99037.84;;;11.24;99.68
84143;BME280;74260;50.772;7.730;2024-02-15T02:14:50;99034.34;;;11.23;99.67
84143;BME280;74260;50.772;7.730;2024-02-15T02:15:21;99031.13;;;11.26;99.51
84143;BME280;74260;50.772;7.730;2024-02-15T02:15:51;99029.72;;;11.29;99.47
84143;BME280;74260;50.772;7.730;2024-02-15T02:16:29;99036.97;;;11.33;99.39
84143;BME280;74260;50.772;7.730;2024-02-15T02:17:13;99032.97;;;11.37;99.40
84143;BME280;74260;50.772;7.730;2024-02-15T02:17:50;99029.97;;;11.32;99.03
84143;BME280;74260;50.772;7.730;2024-02-15T02:18:21;99028.94;;;11.30;99.30
84143;BME280;74260;50.772;7.730;2024-02-15T02:18:51;99036.19;;;11.34;99.36
84143;BME280;74260;50.772;7.730;2024-02-15T02:19:23;99017.19;;;11.24;99.56
84143;BME280;74260;50.772;7.730;2024-02-15T02:19:54;99028.56;;;11.26;99.66
84143;BME280;74260;50.772;7.730;2024-02-15T02:20:27;99028.44;;;11.24;99.89
84143;BME280;74260;50.772;7.730;2024-02-15T02:20:58;99021.44;;;11.23;99.76
84143;BME280;74260;50.772;7.730;2024-02-15T02:21:28;98997.72;;;11.07;99.93
84143;BME280;74260;50.772;7.730;2024-02-15T02:22:00;99027.00;;;11.18;100.00
84143;BME280;74260;50.772;7.730;2024-02-15T02:22:31;99022.22;;;11.12;100.00
84143;BME280;74260;50.772;7.730;2024-02-15T02:23:16;99026.78;;;11.25;99.92
84143;BME280;74260;50.772;7.730;2024-02-15T02:23:52;99030.34;;;11.27;99.78
84143;BME280;74260;50.772;7.730;2024-02-15T02:24:23;99012.56;;;11.20;99.79
84143;BME280;74260;50.772;7.730;2024-02-15T02:25:07;99020.16;;;11.18;99.98
84143;BME280;74260;50.772;7.730;2024-02-15T02:25:38;99008.53;;;11.13;100.00
84143;BME280;74260;50.772;7.730;2024-02-15T02:26:09;99023.53;;;11.17;100.00
84143;BME280;74260;50.772;7.730;2024-02-15T02:26:40;99027.78;;;11.17;99.94
84143;BME280;74260;50.772;7.730;2024-02-15T02:27:12;99012.03;;;11.14;100.00
84143;BME280;74260;50.772;7.730;2024-02-15T02:27:44;99018.09;;;11.14;100.00
84143;BME280;74260;50.772;7.730;2024-02-15T02:28:14;99018.63;;;11.20;100.00
84143;BME280;74260;50.772;7.730;2024-02-15T02:28:47;99015.00;;;11.18;100.00
84143;BME280;74260;50.772;7.730;2024-02-15T02:29:17;99018.88;;;11.23;99.89
84143;BME280;74260;50.772;7.730;2024-02-15T02:29:48;99018.38;;;11.17;100.00
84143;BME280;74260;50.772;7.730;2024-02-15T02:30:20;99021.31;;;11.22;99.82
84143;BME280;74260;50.772;7.730;2024-02-15T02:30:52;99019.53;;;11.21;99.79
84143;BME280;74260;50.772;7.730;2024-02-15T02:31:23;99021.97;;;11.19;99.95
84143;BME280;74260;50.772;7.730;2024-02-15T02:31:53;99026.34;;;11.20;99.72
84143;BME280;74260;50.772;7.730;2024-02-15T02:32:24;99026.09;;;11.27;100.00
84143;BME280;74260;50.772;7.730;2024-02-15T02:32:55;99017.31;;;11.25;99.87
84143;BME280;74260;50.772;7.730;2024-02-15T02:33:25;99015.28;;;11.21;99.91
84143;BME280;74260;50.772;7.730;2024-02-15T02:33:58;99024.03;;;11.23;100.00
84143;BME280;74260;50.772;7.730;2024-02-15T02:34:30;99012.41;;;11.18;99.80
84143;BME280;74260;50.772;7.730;2024-02-15T02:35:00;99019.41;;;11.19;100.00
84143;BME280;74260;50.772;7.730;2024-02-15T02:35:32;99017.56;;;11.18;100.00
84143;BME280;74260;50.772;7.730;2024-02-15T02:36:03;99012.94;;;11.14;99.98
84143;BME280;74260;50.772;7.730;2024-02-15T02:36:34;99022.72;;;11.18;100.00
84143;BME280;74260;50.772;7.730;2024-02-15T02:37:04;99011.91;;;11.12;100.00
84143;BME280;74260;50.772;7.730;2024-02-15T02:37:35;99014.75;;;11.15;100.00
84143;BME280;74260;50.772;7.730;2024-02-15T02:38:06;99012.94;;;11.14;100.00
84143;BME280;74260;50.772;7.730;2024-02-15T02:38:37;99012.94;;;11.14;100.00
84143;BME280;74260;50.772;7.730;2024-02-15T02:39:08;99013.19;;;11.17;100.00
84143;BME280;74260;50.772;7.730;2024-02-15T02:39:38;99015.41;;;11.13;100.00
84143;BME280;74260;50.772;7.730;2024-02-15T02:40:09;99017.19;;;11.14;100.00
84143;BME280;74260;50.772;7.730;2024-02-15T02:40:40;99017.81;;;11.11;100.00
84143;BME280;74260;50.772;7.730;2024-02-15T02:41:12;99008.28;;;11.10;100.00
84143;BME280;74260;50.772;7.730;2024-02-15T02:41:45;99000.56;;;11.10;100.00
84143;BME280;74260;50.772;7.730;2024-02-15T02:42:15;99017.06;;;11.12;100.00
84143;BME280;74260;50.772;7.730;2024-02-15T02:42:56;98997.47;;;11.04;100.00
84143;BME280;74260;50.772;7.730;2024-02-15T02:43:26;99019.41;;;11.09;100.00
84143;BME280;74260;50.772;7.730;2024-02-15T02:43:57;99010.63;;;11.07;100.00
84143;BME280;74260;50.772;7.730;2024-02-15T02:44:27;99008.78;;;11.06;100.00
84143;BME280;74260;50.772;7.730;2024-02-15T02:44:58;99011.13;;;11.03;100.00
84143;BME280;74260;50.772;7.730;2024-02-15T02:45:28;98999.25;;;10.95;100.00